Aviation weather information 2022-01-19 19:23 UTC

TAF(FCEO32)
FCEO32 EETN 191300 AAA
TAF AMD EEKA 191845Z 1914/1920 CNL=
FCEO32 EETN 191500 AAA
TAF AMD EEKE 191905Z 1916/1922 CNL=

TAF(FTEO31)
FTEO31 EETN 191700
TAF EETN 191714Z 1918/2018 23016G26KT 8000 BKN012 TEMPO
     1918/2004 2000 RADZ BR BKN005 OVC010 PROB40 TEMPO 1923/2004
     20018G30KT TEMPO 2004/2015 1500 SHSNRA BR BKN004 SCT015CB BECMG
     2004/2006 18012KT BECMG 2015/2017 36020G34KT TEMPO 2015/2018
     0500 +SHSN BLSN BKN005 BKN012CB=

TAF(FTEO33)
FTEO33 EEEI 191700
TAF EEEI 191730Z 1918/2018 22015G25KT 9999 BKN008 TEMPO
     1920/1924 20017G28KT 3000 RA BKN004 OVC006 TEMPO 2000/2009 2000
     SNRA BR OVC003 BECMG 2007/2009 17005KT TEMPO 2012/2016 09005KT
     1500 SNRA OVC003 TEMPO 2016/2018 01020G32KT 1000 SHSN BR BKN002
     SCT015TCU= 

Weather observation (METAR/SPECI)
METAR EETN 191920Z 21012KT 180V240 6000 RA SCT007 OVC011 03/02 Q0994
TEMPO 4000=
METAR EEEI 191850Z 22017KT 9999 OVC013 04/01 Q0995 TEMPO 21015G25KT=
METAR EETU 191920Z AUTO 22012KT 9999 SCT012/// OVC015/// 02/00
Q0998=
METAR EEPU 191850Z NIL=
METAR EEKE 191920Z AUTO 23013KT 200V270 9999NDV OVC009 03/01 Q0997=
METAR EEKA 191850Z NIL=